sensor_id;sensor_type;location;lat;lon;timestamp;temperature;humidity
68943;DHT22;60852;52.190;4.422;2023-08-06T00:01:38;16.01;89.96
68943;DHT22;60852;52.190;4.422;2023-08-06T00:04:04;16.00;89.88
68943;DHT22;60852;52.190;4.422;2023-08-06T00:06:29;15.98;89.81
68943;DHT22;60852;52.190;4.422;2023-08-06T00:08:55;15.95;89.90
68943;DHT22;60852;52.190;4.422;2023-08-06T00:11:20;16.00;89.97
68943;DHT22;60852;52.190;4.422;2023-08-06T00:13:46;16.04;89.99
68943;DHT22;60852;52.190;4.422;2023-08-06T00:16:12;16.04;89.89
68943;DHT22;60852;52.190;4.422;2023-08-06T00:18:39;16.02;89.84
68943;DHT22;60852;52.190;4.422;2023-08-06T00:21:04;16.00;89.88
68943;DHT22;60852;52.190;4.422;2023-08-06T00:23:30;16.02;89.88
68943;DHT22;60852;52.190;4.422;2023-08-06T00:25:56;16.05;89.83
68943;DHT22;60852;52.190;4.422;2023-08-06T00:28:21;16.02;89.88
68943;DHT22;60852;52.190;4.422;2023-08-06T00:30:53;16.00;89.92
68943;DHT22;60852;52.190;4.422;2023-08-06T00:33:18;16.00;89.94
68943;DHT22;60852;52.190;4.422;2023-08-06T00:35:43;16.00;90.03
68943;DHT22;60852;52.190;4.422;2023-08-06T00:38:09;16.04;89.98
68943;DHT22;60852;52.190;4.422;2023-08-06T00:40:34;16.05;89.96
68943;DHT22;60852;52.190;4.422;2023-08-06T00:43:00;16.04;89.93
68943;DHT22;60852;52.190;4.422;2023-08-06T00:45:26;16.01;90.07
68943;DHT22;60852;52.190;4.422;2023-08-06T00:47:52;15.98;90.12
68943;DHT22;60852;52.190;4.422;2023-08-06T00:50:18;15.97;90.03
68943;DHT22;60852;52.190;4.422;2023-08-06T00:52:46;15.98;90.12
68943;DHT22;60852;52.190;4.422;2023-08-06T00:55:12;15.98;90.10
68943;DHT22;60852;52.190;4.422;2023-08-06T00:57:37;15.98;90.02
68943;DHT22;60852;52.190;4.422;2023-08-06T01:00:03;16.00;90.20
68943;DHT22;60852;52.190;4.422;2023-08-06T01:02:29;16.00;90.11
68943;DHT22;60852;52.190;4.422;2023-08-06T01:04:55;16.05;90.10
68943;DHT22;60852;52.190;4.422;2023-08-06T01:07:33;16.00;90.00
68943;DHT22;60852;52.190;4.422;2023-08-06T01:13:11;15.98;89.97
68943;DHT22;60852;52.190;4.422;2023-08-06T01:15:49;15.95;90.00
68943;DHT22;60852;52.190;4.422;2023-08-06T01:18:18;15.98;89.94
68943;DHT22;60852;52.190;4.422;2023-08-06T01:20:43;16.00;89.99
68943;DHT22;60852;52.190;4.422;2023-08-06T01:23:08;15.93;89.98
68943;DHT22;60852;52.190;4.422;2023-08-06T01:25:46;15.90;90.19
68943;DHT22;60852;52.190;4.422;2023-08-06T01:28:44;15.87;90.26
68943;DHT22;60852;52.190;4.422;2023-08-06T01:31:30;15.90;90.32
68943;DHT22;60852;52.190;4.422;2023-08-06T01:33:58;15.93;90.40
68943;DHT22;60852;52.190;4.422;2023-08-06T01:36:26;15.97;90.23
68943;DHT22;60852;52.190;4.422;2023-08-06T01:38:52;16.00;90.22
68943;DHT22;60852;52.190;4.422;2023-08-06T01:41:18;16.00;90.15
68943;DHT22;60852;52.190;4.422;2023-08-06T01:43:44;16.01;90.21
68943;DHT22;60852;52.190;4.422;2023-08-06T01:46:10;15.98;90.08
68943;DHT22;60852;52.190;4.422;2023-08-06T01:48:35;16.01;90.19
68943;DHT22;60852;52.190;4.422;2023-08-06T01:51:01;16.00;89.98
68943;DHT22;60852;52.190;4.422;2023-08-06T01:53:28;15.98;90.18
68943;DHT22;60852;52.190;4.422;2023-08-06T01:55:54;15.94;90.10
68943;DHT22;60852;52.190;4.422;2023-08-06T01:58:19;16.00;90.29
68943;DHT22;60852;52.190;4.422;2023-08-06T02:00:45;16.01;90.06
68943;DHT22;60852;52.190;4.422;2023-08-06T02:03:10;16.00;90.06
68943;DHT22;60852;52.190;4.422;2023-08-06T02:05:36;16.00;90.14
68943;DHT22;60852;52.190;4.422;2023-08-06T02:08:01;15.95;90.35
68943;DHT22;60852;52.190;4.422;2023-08-06T02:10:27;15.97;90.32
68943;DHT22;60852;52.190;4.422;2023-08-06T02:12:52;15.93;90.21
68943;DHT22;60852;52.190;4.422;2023-08-06T02:15:18;15.84;90.33
68943;DHT22;60852;52.190;4.422;2023-08-06T02:17:43;15.85;90.61
68943;DHT22;60852;52.190;4.422;2023-08-06T02:20:09;15.83;90.75
68943;DHT22;60852;52.190;4.422;2023-08-06T02:22:34;15.91;90.73
68943;DHT22;60852;52.190;4.422;2023-08-06T02:25:00;15.93;90.65
68943;DHT22;60852;52.190;4.422;2023-08-06T02:27:25;15.90;90.48
68943;DHT22;60852;52.190;4.422;2023-08-06T02:29:51;15.93;90.59
68943;DHT22;60852;52.190;4.422;2023-08-06T02:32:16;15.97;90.55
68943;DHT22;60852;52.190;4.422;2023-08-06T02:34:42;16.00;90.31
68943;DHT22;60852;52.190;4.422;2023-08-06T02:37:07;15.98;90.22
68943;DHT22;60852;52.190;4.422;2023-08-06T02:39:33;15.94;90.40
68943;DHT22;60852;52.190;4.422;2023-08-06T02:41:59;15.98;90.44
68943;DHT22;60852;52.190;4.422;2023-08-06T02:44:28;15.98;90.32
68943;DHT22;60852;52.190;4.422;2023-08-06T02:46:53;16.02;90.32
68943;DHT22;60852;52.190;4.422;2023-08-06T02:49:19;16.12;90.51
68943;DHT22;60852;52.190;4.422;2023-08-06T02:51:45;16.14;90.12
68943;DHT22;60852;52.190;4.422;2023-08-06T02:54:10;16.15;90.09
68943;DHT22;60852;52.190;4.422;2023-08-06T02:56:36;16.12;90.06
68943;DHT22;60852;52.190;4.422;2023-08-06T02:59:01;16.11;90.02
68943;DHT22;60852;52.190;4.422;2023-08-06T03:01:27;16.16;90.03
68943;DHT22;60852;52.190;4.422;2023-08-06T03:03:53;16.16;89.86
68943;DHT22;60852;52.190;4.422;2023-08-06T03:06:19;16.16;89.65
68943;DHT22;60852;52.190;4.422;2023-08-06T03:08:44;16.14;89.50
68943;DHT22;60852;52.190;4.422;2023-08-06T03:11:10;16.15;89.45
68943;DHT22;60852;52.190;4.422;2023-08-06T03:13:35;16.14;89.30
68943;DHT22;60852;52.190;4.422;2023-08-06T03:16:01;16.14;89.33
68943;DHT22;60852;52.190;4.422;2023-08-06T03:18:27;16.19;89.38
68943;DHT22;60852;52.190;4.422;2023-08-06T03:20:53;16.14;89.35
68943;DHT22;60852;52.190;4.422;2023-08-06T03:23:18;16.05;89.45
68943;DHT22;60852;52.190;4.422;2023-08-06T03:25:44;15.97;89.28
68943;DHT22;60852;52.190;4.422;2023-08-06T03:28:10;15.83;88.17
68943;DHT22;60852;52.190;4.422;2023-08-06T03:30:35;15.63;87.46
68943;DHT22;60852;52.190;4.422;2023-08-06T03:33:01;15.53;87.62
68943;DHT22;60852;52.190;4.422;2023-08-06T03:35:26;15.40;87.02
68943;DHT22;60852;52.190;4.422;2023-08-06T03:37:52;15.42;87.06
68943;DHT22;60852;52.190;4.422;2023-08-06T03:40:17;15.39;86.55
68943;DHT22;60852;52.190;4.422;2023-08-06T03:42:43;15.43;86.66
68943;DHT22;60852;52.190;4.422;2023-08-06T03:45:08;15.32;85.07
68943;DHT22;60852;52.190;4.422;2023-08-06T03:47:34;15.25;84.54
68943;DHT22;60852;52.190;4.422;2023-08-06T03:50:00;15.26;84.48
68943;DHT22;60852;52.190;4.422;2023-08-06T03:52:25;15.34;84.81
68943;DHT22;60852;52.190;4.422;2023-08-06T03:54:51;15.39;84.14
68943;DHT22;60852;52.190;4.422;2023-08-06T03:57:17;15.39;83.61
68943;DHT22;60852;52.190;4.422;2023-08-06T03:59:42;15.49;84.03
68943;DHT22;60852;52.190;4.422;2023-08-06T04:02:08;15.54;84.29
68943;DHT22;60852;52.190;4.422;2023-08-06T04:04:33;15.57;84.05
68943;DHT22;60852;52.190;4.422;2023-08-06T04:06:59;15.55;83.86
68943;DHT22;60852;52.190;4.422;2023-08-06T04:09:24;15.58;83.98
68943;DHT22;60852;52.190;4.422;2023-08-06T04:11:50;15.63;83.77
68943;DHT22;60852;52.190;4.422;2023-08-06T04:14:15;15.65;83.90
68943;DHT22;60852;52.190;4.422;2023-08-06T04:16:41;15.74;84.26
68943;DHT22;60852;52.190;4.422;2023-08-06T04:19:06;15.75;83.58
68943;DHT22;60852;52.190;4.422;2023-08-06T04:21:31;15.78;84.09
68943;DHT22;60852;52.190;4.422;2023-08-06T04:23:57;15.83;83.99
68943;DHT22;60852;52.190;4.422;2023-08-06T04:26:22;15.80;84.37
68943;DHT22;60852;52.190;4.422;2023-08-06T04:28:48;15.91;84.57
68943;DHT22;60852;52.190;4.422;2023-08-06T04:31:14;15.91;84.45
68943;DHT22;60852;52.190;4.422;2023-08-06T04:33:40;15.93;84.50
68943;DHT22;60852;52.190;4.422;2023-08-06T04:36:06;15.95;83.75
68943;DHT22;60852;52.190;4.422;2023-08-06T04:38:31;15.84;82.49
68943;DHT22;60852;52.190;4.422;2023-08-06T04:40:57;15.78;81.93
68943;DHT22;60852;52.190;4.422;2023-08-06T04:43:23;15.80;81.91
68943;DHT22;60852;52.190;4.422;2023-08-06T04:45:51;15.81;82.61
68943;DHT22;60852;52.190;4.422;2023-08-06T04:48:17;15.93;83.17
68943;DHT22;60852;52.190;4.422;2023-08-06T04:50:47;15.97;83.19
68943;DHT22;60852;52.190;4.422;2023-08-06T04:53:14;16.01;83.50
68943;DHT22;60852;52.190;4.422;2023-08-06T04:55:39;15.97;82.98
68943;DHT22;60852;52.190;4.422;2023-08-06T04:58:05;15.95;83.04
68943;DHT22;60852;52.190;4.422;2023-08-06T05:00:32;16.00;82.99
68943;DHT22;60852;52.190;4.422;2023-08-06T05:02:59;16.01;82.51
68943;DHT22;60852;52.190;4.422;2023-08-06T05:05:25;16.12;82.72
68943;DHT22;60852;52.190;4.422;2023-08-06T05:07:50;16.16;82.58
68943;DHT22;60852;52.190;4.422;2023-08-06T05:10:16;16.21;82.43
68943;DHT22;60852;52.190;4.422;2023-08-06T05:12:42;16.23;82.32
68943;DHT22;60852;52.190;4.422;2023-08-06T05:15:08;16.21;81.53
68943;DHT22;60852;52.190;4.422;2023-08-06T05:17:33;16.16;81.96
68943;DHT22;60852;52.190;4.422;2023-08-06T05:19:59;16.30;81.82
68943;DHT22;60852;52.190;4.422;2023-08-06T05:22:25;16.36;82.84
68943;DHT22;60852;52.190;4.422;2023-08-06T05:24:50;16.42;82.66
68943;DHT22;60852;52.190;4.422;2023-08-06T05:27:16;16.30;82.50
68943;DHT22;60852;52.190;4.422;2023-08-06T05:29:44;16.30;82.58
68943;DHT22;60852;52.190;4.422;2023-08-06T05:32:10;16.22;82.06
68943;DHT22;60852;52.190;4.422;2023-08-06T05:34:35;16.22;82.35
68943;DHT22;60852;52.190;4.422;2023-08-06T05:37:01;16.23;82.28
68943;DHT22;60852;52.190;4.422;2023-08-06T05:39:27;16.29;81.95
68943;DHT22;60852;52.190;4.422;2023-08-06T05:41:52;16.36;81.83
68943;DHT22;60852;52.190;4.422;2023-08-06T05:44:18;16.38;81.49
68943;DHT22;60852;52.190;4.422;2023-08-06T05:46:43;16.39;81.26
68943;DHT22;60852;52.190;4.422;2023-08-06T05:49:09;16.41;81.34
68943;DHT22;60852;52.190;4.422;2023-08-06T05:51:34;16.46;81.29
68943;DHT22;60852;52.190;4.422;2023-08-06T05:54:00;16.45;81.11
68943;DHT22;60852;52.190;4.422;2023-08-06T05:56:25;16.46;80.89
68943;DHT22;60852;52.190;4.422;2023-08-06T05:58:51;16.45;80.56
68943;DHT22;60852;52.190;4.422;2023-08-06T06:01:18;16.42;80.03
68943;DHT22;60852;52.190;4.422;2023-08-06T06:03:44;16.42;80.34
68943;DHT22;60852;52.190;4.422;2023-08-06T06:06:09;16.51;80.78
68943;DHT22;60852;52.190;4.422;2023-08-06T06:08:35;16.55;80.53
68943;DHT22;60852;52.190;4.422;2023-08-06T06:11:00;16.55;79.76
68943;DHT22;60852;52.190;4.422;2023-08-06T06:13:26;16.48;79.98
68943;DHT22;60852;52.190;4.422;2023-08-06T06:15:54;16.52;80.04
68943;DHT22;60852;52.190;4.422;2023-08-06T06:18:20;16.59;80.31
68943;DHT22;60852;52.190;4.422;2023-08-06T06:20:45;16.56;80.19
68943;DHT22;60852;52.190;4.422;2023-08-06T06:23:11;16.51;79.80
68943;DHT22;60852;52.190;4.422;2023-08-06T06:25:36;16.52;79.71
68943;DHT22;60852;52.190;4.422;2023-08-06T06:28:02;16.48;79.36
68943;DHT22;60852;52.190;4.422;2023-08-06T06:30:27;16.55;79.42
68943;DHT22;60852;52.190;4.422;2023-08-06T06:32:53;16.59;79.57
68943;DHT22;60852;52.190;4.422;2023-08-06T06:35:18;16.62;79.91
68943;DHT22;60852;52.190;4.422;2023-08-06T06:37:44;16.69;79.61
68943;DHT22;60852;52.190;4.422;2023-08-06T06:40:09;16.70;79.04
68943;DHT22;60852;52.190;4.422;2023-08-06T06:42:35;16.73;79.17
68943;DHT22;60852;52.190;4.422;2023-08-06T06:45:00;16.72;78.63
68943;DHT22;60852;52.190;4.422;2023-08-06T06:47:26;16.67;78.50
68943;DHT22;60852;52.190;4.422;2023-08-06T06:49:51;16.69;78.24
68943;DHT22;60852;52.190;4.422;2023-08-06T06:52:17;16.73;78.44
68943;DHT22;60852;52.190;4.422;2023-08-06T06:54:42;16.72;78.01
68943;DHT22;60852;52.190;4.422;2023-08-06T06:57:08;16.77;78.26
68943;DHT22;60852;52.190;4.422;2023-08-06T06:59:33;16.81;77.59
68943;DHT22;60852;52.190;4.422;2023-08-06T07:01:59;16.81;77.20
68943;DHT22;60852;52.190;4.422;2023-08-06T07:04:24;16.83;77.18
68943;DHT22;60852;52.190;4.422;2023-08-06T07:06:50;16.84;77.25
68943;DHT22;60852;52.190;4.422;2023-08-06T07:09:17;16.81;76.87
68943;DHT22;60852;52.190;4.422;2023-08-06T07:11:42;16.81;76.88
68943;DHT22;60852;52.190;4.422;2023-08-06T07:14:09;16.90;76.49
68943;DHT22;60852;52.190;4.422;2023-08-06T07:16:34;16.91;76.21
68943;DHT22;60852;52.190;4.422;2023-08-06T07:19:00;17.01;76.47
68943;DHT22;60852;52.190;4.422;2023-08-06T07:21:25;16.99;75.27
68943;DHT22;60852;52.190;4.422;2023-08-06T07:23:51;17.07;75.59
68943;DHT22;60852;52.190;4.422;2023-08-06T07:26:17;17.10;74.96
68943;DHT22;60852;52.190;4.422;2023-08-06T07:28:42;17.12;75.05
68943;DHT22;60852;52.190;4.422;2023-08-06T07:31:08;17.04;75.10
68943;DHT22;60852;52.190;4.422;2023-08-06T07:33:33;17.12;75.14
68943;DHT22;60852;52.190;4.422;2023-08-06T07:35:59;17.08;74.87
68943;DHT22;60852;52.190;4.422;2023-08-06T07:38:24;17.12;75.21
68943;DHT22;60852;52.190;4.422;2023-08-06T07:40:51;17.12;75.63
68943;DHT22;60852;52.190;4.422;2023-08-06T07:43:17;17.21;75.85
68943;DHT22;60852;52.190;4.422;2023-08-06T07:45:42;17.20;75.46
68943;DHT22;60852;52.190;4.422;2023-08-06T07:48:07;17.15;75.76
68943;DHT22;60852;52.190;4.422;2023-08-06T07:50:33;17.10;74.89
68943;DHT22;60852;52.190;4.422;2023-08-06T07:52:59;17.11;74.97
68943;DHT22;60852;52.190;4.422;2023-08-06T07:55:25;17.15;75.15
68943;DHT22;60852;52.190;4.422;2023-08-06T07:57:50;17.18;75.03
68943;DHT22;60852;52.190;4.422;2023-08-06T08:00:16;17.20;74.77
68943;DHT22;60852;52.190;4.422;2023-08-06T08:02:41;17.27;74.99
68943;DHT22;60852;52.190;4.422;2023-08-06T08:05:07;17.41;74.49
68943;DHT22;60852;52.190;4.422;2023-08-06T08:07:34;17.32;73.92
68943;DHT22;60852;52.190;4.422;2023-08-06T08:09:59;17.30;74.34
68943;DHT22;60852;52.190;4.422;2023-08-06T08:12:25;17.32;74.77
68943;DHT22;60852;52.190;4.422;2023-08-06T08:14:50;17.28;74.84
68943;DHT22;60852;52.190;4.422;2023-08-06T08:17:15;17.36;75.45
68943;DHT22;60852;52.190;4.422;2023-08-06T08:19:41;17.38;74.58
68943;DHT22;60852;52.190;4.422;2023-08-06T08:22:07;17.31;74.84
68943;DHT22;60852;52.190;4.422;2023-08-06T08:24:32;17.25;74.15
68943;DHT22;60852;52.190;4.422;2023-08-06T08:26:58;17.31;74.91
68943;DHT22;60852;52.190;4.422;2023-08-06T08:29:23;17.27;74.19
68943;DHT22;60852;52.190;4.422;2023-08-06T08:31:49;17.39;74.24
68943;DHT22;60852;52.190;4.422;2023-08-06T08:34:18;17.53;74.29
68943;DHT22;60852;52.190;4.422;2023-08-06T08:36:44;17.62;73.86
68943;DHT22;60852;52.190;4.422;2023-08-06T08:39:15;17.71;74.16
68943;DHT22;60852;52.190;4.422;2023-08-06T08:41:41;17.75;73.47
68943;DHT22;60852;52.190;4.422;2023-08-06T08:44:11;17.76;73.50
68943;DHT22;60852;52.190;4.422;2023-08-06T08:46:40;17.85;73.47
68943;DHT22;60852;52.190;4.422;2023-08-06T08:49:06;17.90;72.94
68943;DHT22;60852;52.190;4.422;2023-08-06T08:51:33;17.93;72.68
68943;DHT22;60852;52.190;4.422;2023-08-06T08:54:03;18.04;72.59
68943;DHT22;60852;52.190;4.422;2023-08-06T08:56:28;18.20;72.24
68943;DHT22;60852;52.190;4.422;2023-08-06T08:58:54;18.18;71.00
68943;DHT22;60852;52.190;4.422;2023-08-06T09:01:21;18.40;71.66
68943;DHT22;60852;52.190;4.422;2023-08-06T09:03:47;18.52;71.20
68943;DHT22;60852;52.190;4.422;2023-08-06T09:06:14;18.52;70.21
68943;DHT22;60852;52.190;4.422;2023-08-06T09:08:51;18.64;70.36
68943;DHT22;60852;52.190;4.422;2023-08-06T09:11:20;18.71;69.41
68943;DHT22;60852;52.190;4.422;2023-08-06T09:13:47;18.79;69.24
68943;DHT22;60852;52.190;4.422;2023-08-06T09:16:13;18.85;67.10
68943;DHT22;60852;52.190;4.422;2023-08-06T09:18:39;18.87;66.97
68943;DHT22;60852;52.190;4.422;2023-08-06T09:21:05;18.85;66.48
68943;DHT22;60852;52.190;4.422;2023-08-06T09:23:31;18.89;66.31
68943;DHT22;60852;52.190;4.422;2023-08-06T09:25:58;19.10;67.35
68943;DHT22;60852;52.190;4.422;2023-08-06T09:28:24;19.23;67.44
68943;DHT22;60852;52.190;4.422;2023-08-06T09:30:50;19.31;66.94
68943;DHT22;60852;52.190;4.422;2023-08-06T09:33:18;19.57;66.20
68943;DHT22;60852;52.190;4.422;2023-08-06T09:35:46;19.49;64.90
68943;DHT22;60852;52.190;4.422;2023-08-06T09:38:13;19.53;65.91
68943;DHT22;60852;52.190;4.422;2023-08-06T09:40:39;19.58;66.47
68943;DHT22;60852;52.190;4.422;2023-08-06T09:43:05;19.64;66.79
68943;DHT22;60852;52.190;4.422;2023-08-06T09:45:33;19.54;65.95
68943;DHT22;60852;52.190;4.422;2023-08-06T09:48:00;19.34;64.54
68943;DHT22;60852;52.190;4.422;2023-08-06T09:50:30;19.36;64.75
68943;DHT22;60852;52.190;4.422;2023-08-06T09:52:57;19.45;65.64
68943;DHT22;60852;52.190;4.422;2023-08-06T09:55:24;19.67;65.89
68943;DHT22;60852;52.190;4.422;2023-08-06T09:57:52;19.78;66.05
68943;DHT22;60852;52.190;4.422;2023-08-06T10:00:19;19.73;64.92
68943;DHT22;60852;52.190;4.422;2023-08-06T10:02:45;19.66;63.75
68943;DHT22;60852;52.190;4.422;2023-08-06T10:05:11;19.46;64.61
68943;DHT22;60852;52.190;4.422;2023-08-06T10:07:37;19.51;65.24
68943;DHT22;60852;52.190;4.422;2023-08-06T10:10:06;19.66;64.84
68943;DHT22;60852;52.190;4.422;2023-08-06T10:12:54;19.78;64.33
68943;DHT22;60852;52.190;4.422;2023-08-06T10:15:25;19.82;64.48
68943;DHT22;60852;52.190;4.422;2023-08-06T10:17:56;19.87;63.68
68943;DHT22;60852;52.190;4.422;2023-08-06T10:20:22;19.68;64.20
68943;DHT22;60852;52.190;4.422;2023-08-06T10:25:31;19.67;63.69
68943;DHT22;60852;52.190;4.422;2023-08-06T10:27:57;19.89;62.48
68943;DHT22;60852;52.190;4.422;2023-08-06T10:30:28;20.07;62.32
68943;DHT22;60852;52.190;4.422;2023-08-06T10:32:55;19.89;63.06
68943;DHT22;60852;52.190;4.422;2023-08-06T10:37:58;20.19;62.13
68943;DHT22;60852;52.190;4.422;2023-08-06T10:40:24;20.45;61.58
68943;DHT22;60852;52.190;4.422;2023-08-06T10:42:51;20.57;61.39
68943;DHT22;60852;52.190;4.422;2023-08-06T10:45:18;20.73;61.62
68943;DHT22;60852;52.190;4.422;2023-08-06T10:47:45;20.79;60.84
68943;DHT22;60852;52.190;4.422;2023-08-06T10:50:13;20.83;59.99
68943;DHT22;60852;52.190;4.422;2023-08-06T10:52:42;20.47;60.08
68943;DHT22;60852;52.190;4.422;2023-08-06T10:55:07;20.46;60.11
68943;DHT22;60852;52.190;4.422;2023-08-06T10:57:34;20.47;60.63
68943;DHT22;60852;52.190;4.422;2023-08-06T11:00:00;20.32;60.50
68943;DHT22;60852;52.190;4.422;2023-08-06T11:02:25;20.21;60.99
68943;DHT22;60852;52.190;4.422;2023-08-06T11:04:51;20.53;61.69
68943;DHT22;60852;52.190;4.422;2023-08-06T11:07:16;20.66;60.29
68943;DHT22;60852;52.190;4.422;2023-08-06T11:09:42;20.49;61.04
68943;DHT22;60852;52.190;4.422;2023-08-06T11:12:11;20.47;62.11
68943;DHT22;60852;52.190;4.422;2023-08-06T11:14:36;20.38;61.28
68943;DHT22;60852;52.190;4.422;2023-08-06T11:17:05;20.38;62.58
68943;DHT22;60852;52.190;4.422;2023-08-06T11:19:30;20.39;62.83
68943;DHT22;60852;52.190;4.422;2023-08-06T11:21:56;20.43;62.74
68943;DHT22;60852;52.190;4.422;2023-08-06T11:24:24;20.62;62.59
68943;DHT22;60852;52.190;4.422;2023-08-06T11:26:49;20.76;62.63
68943;DHT22;60852;52.190;4.422;2023-08-06T11:29:15;20.59;63.02
68943;DHT22;60852;52.190;4.422;2023-08-06T11:31:41;20.56;63.23
68943;DHT22;60852;52.190;4.422;2023-08-06T11:34:07;20.62;63.96
68943;DHT22;60852;52.190;4.422;2023-08-06T11:36:34;20.81;63.17
68943;DHT22;60852;52.190;4.422;2023-08-06T11:39:02;20.84;62.05
68943;DHT22;60852;52.190;4.422;2023-08-06T11:41:31;20.75;60.89
68943;DHT22;60852;52.190;4.422;2023-08-06T11:43:58;20.56;61.47
68943;DHT22;60852;52.190;4.422;2023-08-06T11:46:24;20.46;62.65
68943;DHT22;60852;52.190;4.422;2023-08-06T11:48:55;20.33;63.71
68943;DHT22;60852;52.190;4.422;2023-08-06T11:51:27;20.14;65.20
68943;DHT22;60852;52.190;4.422;2023-08-06T11:53:59;20.12;66.79
68943;DHT22;60852;52.190;4.422;2023-08-06T11:56:25;19.82;66.23
68943;DHT22;60852;52.190;4.422;2023-08-06T11:58:51;19.74;66.51
68943;DHT22;60852;52.190;4.422;2023-08-06T12:01:18;19.74;65.95
68943;DHT22;60852;52.190;4.422;2023-08-06T12:03:43;19.77;65.77
68943;DHT22;60852;52.190;4.422;2023-08-06T12:06:09;19.75;66.21
68943;DHT22;60852;52.190;4.422;2023-08-06T12:08:34;19.87;66.20
68943;DHT22;60852;52.190;4.422;2023-08-06T12:11:00;19.85;66.50
68943;DHT22;60852;52.190;4.422;2023-08-06T12:13:26;19.97;67.07
68943;DHT22;60852;52.190;4.422;2023-08-06T12:15:51;19.97;66.23
68943;DHT22;60852;52.190;4.422;2023-08-06T12:18:19;19.91;64.52
68943;DHT22;60852;52.190;4.422;2023-08-06T12:20:44;20.14;65.44
68943;DHT22;60852;52.190;4.422;2023-08-06T12:23:10;20.28;65.93
68943;DHT22;60852;52.190;4.422;2023-08-06T12:25:35;20.46;66.20
68943;DHT22;60852;52.190;4.422;2023-08-06T12:28:01;20.63;65.84
68943;DHT22;60852;52.190;4.422;2023-08-06T12:30:26;20.59;65.84
68943;DHT22;60852;52.190;4.422;2023-08-06T12:32:52;20.47;64.31
68943;DHT22;60852;52.190;4.422;2023-08-06T12:35:17;20.25;65.40
68943;DHT22;60852;52.190;4.422;2023-08-06T12:37:43;20.12;66.88
68943;DHT22;60852;52.190;4.422;2023-08-06T12:40:09;20.02;70.55
68943;DHT22;60852;52.190;4.422;2023-08-06T12:42:35;19.91;70.12
68943;DHT22;60852;52.190;4.422;2023-08-06T12:45:01;19.79;70.74
68943;DHT22;60852;52.190;4.422;2023-08-06T12:47:26;19.57;70.61
68943;DHT22;60852;52.190;4.422;2023-08-06T12:49:51;19.46;70.72
68943;DHT22;60852;52.190;4.422;2023-08-06T12:52:17;19.40;71.21
68943;DHT22;60852;52.190;4.422;2023-08-06T12:54:45;19.26;70.36
68943;DHT22;60852;52.190;4.422;2023-08-06T12:57:11;19.27;70.34
68943;DHT22;60852;52.190;4.422;2023-08-06T12:59:37;19.33;70.25
68943;DHT22;60852;52.190;4.422;2023-08-06T13:02:03;19.39;68.27
68943;DHT22;60852;52.190;4.422;2023-08-06T13:04:28;19.45;68.39
68943;DHT22;60852;52.190;4.422;2023-08-06T13:06:54;19.47;68.66
68943;DHT22;60852;52.190;4.422;2023-08-06T13:09:20;19.70;67.51
68943;DHT22;60852;52.190;4.422;2023-08-06T13:11:46;19.78;66.04
68943;DHT22;60852;52.190;4.422;2023-08-06T13:14:13;19.82;66.15
68943;DHT22;60852;52.190;4.422;2023-08-06T13:16:41;19.82;69.39
68943;DHT22;60852;52.190;4.422;2023-08-06T13:19:08;19.81;69.72
68943;DHT22;60852;52.190;4.422;2023-08-06T13:22:20;19.81;70.57
68943;DHT22;60852;52.190;4.422;2023-08-06T13:24:21;19.50;70.41
68943;DHT22;60852;52.190;4.422;2023-08-06T13:26:46;19.49;70.61
68943;DHT22;60852;52.190;4.422;2023-08-06T13:29:11;19.54;71.62
68943;DHT22;60852;52.190;4.422;2023-08-06T13:31:37;19.23;72.85
68943;DHT22;60852;52.190;4.422;2023-08-06T13:34:03;18.95;77.68
68943;DHT22;60852;52.190;4.422;2023-08-06T13:36:29;18.09;80.69
68943;DHT22;60852;52.190;4.422;2023-08-06T13:38:55;17.49;82.30
68943;DHT22;60852;52.190;4.422;2023-08-06T13:41:20;17.06;82.81
68943;DHT22;60852;52.190;4.422;2023-08-06T13:43:46;16.90;83.75
68943;DHT22;60852;52.190;4.422;2023-08-06T13:46:12;16.72;84.37
68943;DHT22;60852;52.190;4.422;2023-08-06T13:48:46;16.69;84.97
68943;DHT22;60852;52.190;4.422;2023-08-06T13:51:13;16.77;84.63
68943;DHT22;60852;52.190;4.422;2023-08-06T13:53:40;16.87;84.29
68943;DHT22;60852;52.190;4.422;2023-08-06T13:56:06;16.77;81.70
68943;DHT22;60852;52.190;4.422;2023-08-06T13:58:33;16.80;82.85
68943;DHT22;60852;52.190;4.422;2023-08-06T14:00:59;16.69;81.51
68943;DHT22;60852;52.190;4.422;2023-08-06T14:03:24;16.64;82.38
68943;DHT22;60852;52.190;4.422;2023-08-06T14:05:50;16.49;82.91
68943;DHT22;60852;52.190;4.422;2023-08-06T14:08:16;16.19;82.93
68943;DHT22;60852;52.190;4.422;2023-08-06T14:10:44;16.28;84.22
68943;DHT22;60852;52.190;4.422;2023-08-06T14:13:10;16.32;84.48
68943;DHT22;60852;52.190;4.422;2023-08-06T14:15:35;16.33;84.17
68943;DHT22;60852;52.190;4.422;2023-08-06T14:18:02;16.42;83.73
68943;DHT22;60852;52.190;4.422;2023-08-06T14:20:28;16.39;84.42
68943;DHT22;60852;52.190;4.422;2023-08-06T14:22:53;16.29;85.51
68943;DHT22;60852;52.190;4.422;2023-08-06T14:25:19;16.21;85.75
68943;DHT22;60852;52.190;4.422;2023-08-06T14:27:44;16.16;86.47
68943;DHT22;60852;52.190;4.422;2023-08-06T14:30:10;16.05;85.58
68943;DHT22;60852;52.190;4.422;2023-08-06T14:32:36;16.05;85.46
68943;DHT22;60852;52.190;4.422;2023-08-06T14:35:02;16.05;83.95
68943;DHT22;60852;52.190;4.422;2023-08-06T14:37:27;16.08;83.56
68943;DHT22;60852;52.190;4.422;2023-08-06T14:39:53;16.08;83.07
68943;DHT22;60852;52.190;4.422;2023-08-06T14:42:19;16.28;83.93
68943;DHT22;60852;52.190;4.422;2023-08-06T14:44:44;16.52;83.52
68943;DHT22;60852;52.190;4.422;2023-08-06T14:47:10;16.49;81.35
68943;DHT22;60852;52.190;4.422;2023-08-06T14:49:35;16.57;82.11
68943;DHT22;60852;52.190;4.422;2023-08-06T14:52:01;16.64;82.04
68943;DHT22;60852;52.190;4.422;2023-08-06T14:54:27;16.49;82.28
68943;DHT22;60852;52.190;4.422;2023-08-06T14:56:53;16.51;82.73
68943;DHT22;60852;52.190;4.422;2023-08-06T14:59:18;16.52;81.83
68943;DHT22;60852;52.190;4.422;2023-08-06T15:01:44;16.56;81.28
68943;DHT22;60852;52.190;4.422;2023-08-06T15:04:09;16.64;80.98
68943;DHT22;60852;52.190;4.422;2023-08-06T15:06:35;16.63;78.86
68943;DHT22;60852;52.190;4.422;2023-08-06T15:09:00;16.80;79.61
68943;DHT22;60852;52.190;4.422;2023-08-06T15:11:26;16.80;77.72
68943;DHT22;60852;52.190;4.422;2023-08-06T15:13:52;16.70;76.26
68943;DHT22;60852;52.190;4.422;2023-08-06T15:16:17;16.67;76.03
68943;DHT22;60852;52.190;4.422;2023-08-06T15:18:43;16.73;76.47
68943;DHT22;60852;52.190;4.422;2023-08-06T15:21:09;16.67;75.89
68943;DHT22;60852;52.190;4.422;2023-08-06T15:23:35;16.69;75.95
68943;DHT22;60852;52.190;4.422;2023-08-06T15:26:01;16.76;75.02
68943;DHT22;60852;52.190;4.422;2023-08-06T15:28:27;16.84;75.37
68943;DHT22;60852;52.190;4.422;2023-08-06T15:30:54;16.83;74.54
68943;DHT22;60852;52.190;4.422;2023-08-06T15:33:19;16.76;74.64